Finley, Washington
Current Conditions -  °F | °C
As of 12:53 AM on Monday 24 Nov 2014 (Local Time) from KPSC Reporting Station
Clear Clear  
Wind Chill: 29°   Ceiling: Unl
Heat Index: 33°   Visibility: 10mi
Dew Point: 31°   Wind: 5mph
Humidity: 92%   Direction: 80°E
Pressure: 30.32"   Gusts: NA
Location:  46.2117°N, 119.173°W
Report Text: KPSC 240853Z AUTO 08004KT 10SM CLR 01/M01 A3032 RMK AO2 SLP271 60000 T00061006 53025
Loading
Personal Weather Stations






























Interactive Weather Map New forecast layout! Learn more

10-Day Weather Forecast

Advertisements
Track Severe Weather on mobile